UAL1754 KSFO-KLAX
Flight info
| Callsign | UAL1754 |
|---|---|
| Flight time | 0h 58m |
| Altitude | 33000 |
| Route | WESLA5 SUSEY EBAYE BURGL IRNMN2 |
| Aircraft | B77W/H-SDE1E2E3FGHIJ2J3J4J5M1RWXY/LB1D1 |
Departure
| Time | 2026-04-21 01:30 |
|---|---|
| Airport | San Francisco International Airport (KSFO) |
Arrival
| Time | 2026-04-21 02:29 |
|---|---|
| Airport | Los Angeles International Airport (KLAX) |
| Time | Latitude | Longitude | Altitude | Speed | Heading |
|---|---|---|---|---|---|
| 2026-04-21 00:43 | 37.61764 | -122.39253 | 38 ft | 0 kts | 28° |
| 2026-04-21 01:10 | 37.61755 | -122.39259 | 38 ft | 2 kts | 28° |
| 2026-04-21 01:10 | 37.61747 | -122.39265 | 38 ft | 1 kts | 27° |
| 2026-04-21 01:10 | 37.61733 | -122.39271 | 38 ft | 2 kts | 11° |
| 2026-04-21 01:10 | 37.61718 | -122.39273 | 38 ft | 2 kts | 353° |
| 2026-04-21 01:11 | 37.61703 | -122.39269 | 38 ft | 2 kts | 337° |
| 2026-04-21 01:11 | 37.61690 | -122.39259 | 38 ft | 2 kts | 320° |
| 2026-04-21 01:11 | 37.61680 | -122.39246 | 38 ft | 2 kts | 303° |
| 2026-04-21 01:11 | 37.61676 | -122.39237 | 38 ft | 0 kts | 297° |
| 2026-04-21 01:13 | 37.61676 | -122.39238 | 38 ft | 0 kts | 297° |
| 2026-04-21 01:13 | 37.61681 | -122.39252 | 38 ft | 3 kts | 297° |
| 2026-04-21 01:14 | 37.61697 | -122.39291 | 38 ft | 6 kts | 297° |
| 2026-04-21 01:14 | 37.61720 | -122.39347 | 38 ft | 8 kts | 298° |
| 2026-04-21 01:14 | 37.61752 | -122.39417 | 36 ft | 10 kts | 299° |
| 2026-04-21 01:14 | 37.61800 | -122.39492 | 35 ft | 11 kts | 328° |
| 2026-04-21 01:15 | 37.61879 | -122.39527 | 35 ft | 11 kts | 352° |
| 2026-04-21 01:15 | 37.61945 | -122.39508 | 37 ft | 7 kts | 38° |
| 2026-04-21 01:15 | 37.61971 | -122.39459 | 37 ft | 7 kts | 66° |
| 2026-04-21 01:15 | 37.61989 | -122.39401 | 38 ft | 6 kts | 66° |
| 2026-04-21 01:16 | 37.62024 | -122.39348 | 38 ft | 8 kts | 37° |
| 2026-04-21 01:16 | 37.62084 | -122.39304 | 38 ft | 11 kts | 28° |
| 2026-04-21 01:16 | 37.62162 | -122.39251 | 37 ft | 13 kts | 28° |
| 2026-04-21 01:16 | 37.62246 | -122.39191 | 36 ft | 14 kts | 32° |
| 2026-04-21 01:17 | 37.62309 | -122.39099 | 35 ft | 14 kts | 67° |
| 2026-04-21 01:17 | 37.62335 | -122.38985 | 35 ft | 13 kts | 79° |
| 2026-04-21 01:17 | 37.62322 | -122.38878 | 35 ft | 12 kts | 117° |
| 2026-04-21 01:17 | 37.62283 | -122.38783 | 36 ft | 11 kts | 117° |
| 2026-04-21 01:18 | 37.62245 | -122.38690 | 37 ft | 11 kts | 118° |
| 2026-04-21 01:18 | 37.62208 | -122.38605 | 37 ft | 10 kts | 118° |
| 2026-04-21 01:18 | 37.62174 | -122.38523 | 38 ft | 10 kts | 117° |
| 2026-04-21 01:18 | 37.62142 | -122.38444 | 38 ft | 10 kts | 117° |
| 2026-04-21 01:19 | 37.62107 | -122.38362 | 38 ft | 10 kts | 118° |
| 2026-04-21 01:19 | 37.62069 | -122.38271 | 38 ft | 12 kts | 118° |
| 2026-04-21 01:19 | 37.62022 | -122.38161 | 38 ft | 14 kts | 118° |
| 2026-04-21 01:19 | 37.61971 | -122.38042 | 38 ft | 16 kts | 122° |
| 2026-04-21 01:20 | 37.61895 | -122.37929 | 37 ft | 17 kts | 142° |
| 2026-04-21 01:20 | 37.61786 | -122.37872 | 36 ft | 17 kts | 169° |
| 2026-04-21 01:20 | 37.61669 | -122.37876 | 36 ft | 16 kts | 196° |
| 2026-04-21 01:20 | 37.61572 | -122.37934 | 37 ft | 14 kts | 213° |
| 2026-04-21 01:21 | 37.61507 | -122.37987 | 38 ft | 5 kts | 201° |
| 2026-04-21 01:21 | 37.61477 | -122.38003 | 38 ft | 7 kts | 202° |
| 2026-04-21 01:21 | 37.61392 | -122.38052 | 38 ft | 17 kts | 207° |
| 2026-04-21 01:21 | 37.61285 | -122.38120 | 38 ft | 16 kts | 207° |
| 2026-04-21 01:22 | 37.61180 | -122.38190 | 38 ft | 18 kts | 207° |
| 2026-04-21 01:22 | 37.61058 | -122.38271 | 38 ft | 20 kts | 207° |
| 2026-04-21 01:22 | 37.60934 | -122.38354 | 38 ft | 19 kts | 208° |
| 2026-04-21 01:22 | 37.60817 | -122.38433 | 38 ft | 18 kts | 208° |
| 2026-04-21 01:23 | 37.60718 | -122.38486 | 38 ft | 9 kts | 181° |
| 2026-04-21 01:23 | 37.60656 | -122.38444 | 37 ft | 10 kts | 134° |
| 2026-04-21 01:23 | 37.60596 | -122.38358 | 36 ft | 16 kts | 131° |
| 2026-04-21 01:23 | 37.60520 | -122.38229 | 35 ft | 18 kts | 117° |
| 2026-04-21 01:24 | 37.60513 | -122.38074 | 33 ft | 18 kts | 80° |
| 2026-04-21 01:24 | 37.60582 | -122.37945 | 30 ft | 15 kts | 31° |
| 2026-04-21 01:24 | 37.60679 | -122.37880 | 29 ft | 16 kts | 28° |
| 2026-04-21 01:24 | 37.60784 | -122.37809 | 27 ft | 19 kts | 27° |
| 2026-04-21 01:25 | 37.60910 | -122.37728 | 28 ft | 19 kts | 28° |
| 2026-04-21 01:25 | 37.61029 | -122.37649 | 28 ft | 19 kts | 27° |
| 2026-04-21 01:25 | 37.61150 | -122.37571 | 26 ft | 19 kts | 27° |
| 2026-04-21 01:25 | 37.61268 | -122.37487 | 24 ft | 19 kts | 28° |
| 2026-04-21 01:26 | 37.61389 | -122.37410 | 23 ft | 19 kts | 27° |
| 2026-04-21 01:26 | 37.61504 | -122.37323 | 22 ft | 19 kts | 42° |
| 2026-04-21 01:26 | 37.61556 | -122.37170 | 19 ft | 19 kts | 92° |
| 2026-04-21 01:26 | 37.61509 | -122.37009 | 18 ft | 19 kts | 118° |
| 2026-04-21 01:27 | 37.61429 | -122.36871 | 18 ft | 19 kts | 130° |
| 2026-04-21 01:27 | 37.61350 | -122.36740 | 18 ft | 18 kts | 119° |
| 2026-04-21 01:27 | 37.61291 | -122.36602 | 18 ft | 17 kts | 119° |
| 2026-04-21 01:27 | 37.61230 | -122.36456 | 17 ft | 19 kts | 118° |
| 2026-04-21 01:28 | 37.61163 | -122.36297 | 15 ft | 21 kts | 117° |
| 2026-04-21 01:28 | 37.61096 | -122.36131 | 15 ft | 16 kts | 118° |
| 2026-04-21 01:28 | 37.61063 | -122.36054 | 15 ft | 6 kts | 114° |
| 2026-04-21 01:28 | 37.61055 | -122.35995 | 15 ft | 7 kts | 86° |
| 2026-04-21 01:29 | 37.61084 | -122.35928 | 15 ft | 10 kts | 46° |
| 2026-04-21 01:29 | 37.61151 | -122.35875 | 15 ft | 11 kts | 8° |
| 2026-04-21 01:29 | 37.61212 | -122.35937 | 15 ft | 12 kts | 298° |
| 2026-04-21 01:29 | 37.61223 | -122.35963 | 15 ft | 5 kts | 299° |
| 2026-04-21 01:30 | 37.61286 | -122.36111 | 15 ft | 46 kts | 298° |
| 2026-04-21 01:30 | 37.61583 | -122.36827 | 19 ft | 134 kts | 299° |
| 2026-04-21 01:30 | 37.62127 | -122.38088 | 378 ft | 179 kts | 297° |
| 2026-04-21 01:30 | 37.62754 | -122.39487 | 1158 ft | 198 kts | 297° |
| 2026-04-21 01:31 | 37.63454 | -122.41044 | 2256 ft | 211 kts | 294° |
| 2026-04-21 01:31 | 37.64150 | -122.42658 | 3522 ft | 215 kts | 293° |
| 2026-04-21 01:31 | 37.64887 | -122.44292 | 4729 ft | 220 kts | 292° |
| 2026-04-21 01:31 | 37.65602 | -122.46015 | 5877 ft | 226 kts | 290° |
| 2026-04-21 01:32 | 37.66327 | -122.47764 | 7063 ft | 228 kts | 290° |
| 2026-04-21 01:32 | 37.66956 | -122.49601 | 8083 ft | 226 kts | 270° |
| 2026-04-21 01:32 | 37.66828 | -122.51495 | 8963 ft | 217 kts | 238° |
| 2026-04-21 01:32 | 37.65914 | -122.52981 | 9857 ft | 214 kts | 210° |
| 2026-04-21 01:33 | 37.64508 | -122.53606 | 10737 ft | 221 kts | 182° |
| 2026-04-21 01:33 | 37.62948 | -122.53249 | 11629 ft | 236 kts | 166° |
| 2026-04-21 01:33 | 37.61347 | -122.52600 | 12515 ft | 249 kts | 165° |
| 2026-04-21 01:33 | 37.59632 | -122.51891 | 13301 ft | 266 kts | 165° |
| 2026-04-21 01:34 | 37.57819 | -122.51139 | 14101 ft | 280 kts | 164° |
| 2026-04-21 01:34 | 37.55892 | -122.50339 | 14881 ft | 296 kts | 165° |
| 2026-04-21 01:34 | 37.53868 | -122.49499 | 15639 ft | 310 kts | 165° |
| 2026-04-21 01:34 | 37.51776 | -122.48629 | 16355 ft | 324 kts | 165° |
| 2026-04-21 01:35 | 37.49609 | -122.47466 | 17102 ft | 341 kts | 155° |
| 2026-04-21 01:35 | 37.47667 | -122.45656 | 18009 ft | 354 kts | 143° |
| 2026-04-21 01:35 | 37.45925 | -122.43374 | 18864 ft | 363 kts | 140° |
| 2026-04-21 01:35 | 37.44206 | -122.41009 | 19734 ft | 367 kts | 140° |
| 2026-04-21 01:36 | 37.42459 | -122.38615 | 20428 ft | 375 kts | 141° |
| 2026-04-21 01:36 | 37.40646 | -122.36139 | 21163 ft | 381 kts | 141° |
| 2026-04-21 01:36 | 37.38843 | -122.33682 | 21978 ft | 383 kts | 141° |
| 2026-04-21 01:36 | 37.37001 | -122.31177 | 22655 ft | 388 kts | 141° |
| 2026-04-21 01:37 | 37.35138 | -122.28647 | 23246 ft | 394 kts | 141° |
| 2026-04-21 01:37 | 37.33246 | -122.26081 | 23903 ft | 399 kts | 141° |
| 2026-04-21 01:37 | 37.31341 | -122.23499 | 24515 ft | 404 kts | 141° |
| 2026-04-21 01:37 | 37.29403 | -122.20875 | 25145 ft | 408 kts | 141° |
| 2026-04-21 01:38 | 37.27433 | -122.18210 | 25663 ft | 413 kts | 141° |
| 2026-04-21 01:38 | 37.25465 | -122.15551 | 26128 ft | 419 kts | 141° |
| 2026-04-21 01:38 | 37.23445 | -122.12823 | 26659 ft | 422 kts | 141° |
| 2026-04-21 01:38 | 37.21421 | -122.10090 | 27191 ft | 425 kts | 141° |
| 2026-04-21 01:39 | 37.19389 | -122.07349 | 27653 ft | 428 kts | 141° |
| 2026-04-21 01:39 | 37.17340 | -122.04591 | 28044 ft | 433 kts | 141° |
| 2026-04-21 01:39 | 37.15257 | -122.01787 | 28458 ft | 436 kts | 141° |
| 2026-04-21 01:39 | 37.13171 | -121.98981 | 28865 ft | 439 kts | 141° |
| 2026-04-21 01:40 | 37.11064 | -121.96152 | 29268 ft | 442 kts | 141° |
| 2026-04-21 01:40 | 37.08939 | -121.93297 | 29693 ft | 443 kts | 141° |
| 2026-04-21 01:40 | 37.06831 | -121.90468 | 30224 ft | 442 kts | 141° |
| 2026-04-21 01:40 | 37.04720 | -121.87635 | 30788 ft | 439 kts | 141° |
| 2026-04-21 01:41 | 37.02620 | -121.84822 | 31283 ft | 437 kts | 141° |
| 2026-04-21 01:41 | 37.00534 | -121.82031 | 31720 ft | 436 kts | 141° |
| 2026-04-21 01:41 | 36.98445 | -121.79241 | 32071 ft | 437 kts | 141° |
| 2026-04-21 01:41 | 36.96340 | -121.76429 | 32493 ft | 435 kts | 141° |
| 2026-04-21 01:42 | 36.94244 | -121.73632 | 32883 ft | 434 kts | 141° |
| 2026-04-21 01:42 | 36.92160 | -121.70858 | 32925 ft | 441 kts | 141° |
| 2026-04-21 01:42 | 36.87801 | -121.65064 | 32940 ft | 455 kts | 141° |
| 2026-04-21 01:43 | 36.83256 | -121.59030 | 32940 ft | 470 kts | 140° |
| 2026-04-21 01:43 | 36.78587 | -121.52839 | 32961 ft | 484 kts | 140° |
| 2026-04-21 01:44 | 36.73824 | -121.46534 | 32962 ft | 493 kts | 140° |
| 2026-04-21 01:44 | 36.69043 | -121.40214 | 32949 ft | 497 kts | 140° |
| 2026-04-21 01:45 | 36.64246 | -121.33884 | 32938 ft | 499 kts | 140° |
| 2026-04-21 01:45 | 36.59362 | -121.27456 | 32937 ft | 500 kts | 140° |
| 2026-04-21 01:46 | 36.54535 | -121.21114 | 32936 ft | 500 kts | 140° |
| 2026-04-21 01:46 | 36.49678 | -121.14748 | 32943 ft | 502 kts | 140° |
| 2026-04-21 01:47 | 36.44842 | -121.08420 | 32937 ft | 503 kts | 140° |
| 2026-04-21 01:47 | 36.40037 | -121.01862 | 32946 ft | 507 kts | 136° |
| 2026-04-21 01:48 | 36.35423 | -120.95164 | 32947 ft | 507 kts | 137° |
| 2026-04-21 01:48 | 36.30769 | -120.88448 | 32948 ft | 508 kts | 137° |
| 2026-04-21 01:49 | 36.26112 | -120.81757 | 32956 ft | 509 kts | 136° |
| 2026-04-21 01:49 | 36.21388 | -120.74993 | 32969 ft | 509 kts | 136° |
| 2026-04-21 01:50 | 36.16696 | -120.68295 | 32962 ft | 509 kts | 136° |
| 2026-04-21 01:50 | 36.12002 | -120.61610 | 32961 ft | 510 kts | 136° |
| 2026-04-21 01:51 | 36.07263 | -120.54875 | 32968 ft | 509 kts | 136° |
| 2026-04-21 01:51 | 36.02544 | -120.48183 | 32972 ft | 510 kts | 136° |
| 2026-04-21 01:52 | 35.95444 | -120.38141 | 32957 ft | 510 kts | 136° |
| 2026-04-21 01:53 | 35.90691 | -120.31432 | 32943 ft | 500 kts | 136° |
| 2026-04-21 01:53 | 35.88420 | -120.28294 | 32943 ft | 478 kts | 140° |
| 2026-04-21 01:53 | 35.85913 | -120.25590 | 32937 ft | 452 kts | 149° |
| 2026-04-21 01:53 | 35.83295 | -120.23450 | 32950 ft | 435 kts | 153° |
| 2026-04-21 01:54 | 35.80697 | -120.21455 | 32958 ft | 436 kts | 154° |
| 2026-04-21 01:54 | 35.75450 | -120.17466 | 32946 ft | 438 kts | 154° |
| 2026-04-21 01:55 | 35.70235 | -120.13522 | 32952 ft | 437 kts | 154° |
| 2026-04-21 01:55 | 35.64967 | -120.09551 | 32952 ft | 439 kts | 154° |
| 2026-04-21 01:56 | 35.59731 | -120.05592 | 32963 ft | 438 kts | 154° |
| 2026-04-21 01:56 | 35.54432 | -120.01595 | 32963 ft | 439 kts | 154° |
| 2026-04-21 01:57 | 35.49176 | -119.97637 | 32973 ft | 438 kts | 154° |
| 2026-04-21 01:57 | 35.43913 | -119.93683 | 32975 ft | 440 kts | 154° |
| 2026-04-21 01:58 | 35.38609 | -119.89703 | 32967 ft | 440 kts | 154° |
| 2026-04-21 01:58 | 35.33322 | -119.85743 | 32974 ft | 440 kts | 154° |
| 2026-04-21 01:59 | 35.28086 | -119.81678 | 32983 ft | 442 kts | 149° |
| 2026-04-21 01:59 | 35.23139 | -119.77065 | 32991 ft | 446 kts | 148° |
| 2026-04-21 02:00 | 35.18123 | -119.72369 | 32984 ft | 443 kts | 148° |
| 2026-04-21 02:00 | 35.15716 | -119.70114 | 32958 ft | 427 kts | 148° |
| 2026-04-21 02:00 | 35.13345 | -119.67898 | 32943 ft | 423 kts | 148° |
| 2026-04-21 02:00 | 35.10927 | -119.65651 | 32951 ft | 438 kts | 148° |
| 2026-04-21 02:01 | 35.08447 | -119.63346 | 32932 ft | 446 kts | 148° |
| 2026-04-21 02:01 | 35.05946 | -119.61021 | 32547 ft | 453 kts | 148° |
| 2026-04-21 02:01 | 35.03395 | -119.58649 | 31804 ft | 456 kts | 147° |
| 2026-04-21 02:01 | 35.00853 | -119.56286 | 30988 ft | 457 kts | 147° |
| 2026-04-21 02:02 | 34.98306 | -119.53921 | 30378 ft | 453 kts | 147° |
| 2026-04-21 02:02 | 34.95800 | -119.51594 | 29915 ft | 446 kts | 147° |
| 2026-04-21 02:02 | 34.93291 | -119.49266 | 29407 ft | 441 kts | 147° |
| 2026-04-21 02:02 | 34.90836 | -119.46993 | 28883 ft | 436 kts | 147° |
| 2026-04-21 02:03 | 34.88369 | -119.44773 | 28357 ft | 431 kts | 148° |
| 2026-04-21 02:03 | 34.85943 | -119.42606 | 27828 ft | 427 kts | 148° |
| 2026-04-21 02:03 | 34.83542 | -119.40463 | 27308 ft | 422 kts | 148° |
| 2026-04-21 02:03 | 34.81162 | -119.38339 | 26783 ft | 418 kts | 148° |
| 2026-04-21 02:04 | 34.78765 | -119.36199 | 26240 ft | 414 kts | 148° |
| 2026-04-21 02:04 | 34.76436 | -119.34121 | 25712 ft | 410 kts | 148° |
| 2026-04-21 02:04 | 34.74131 | -119.32068 | 25334 ft | 401 kts | 149° |
| 2026-04-21 02:04 | 34.71851 | -119.30072 | 24870 ft | 396 kts | 149° |
| 2026-04-21 02:05 | 34.69587 | -119.28097 | 24326 ft | 392 kts | 149° |
| 2026-04-21 02:05 | 34.67366 | -119.26161 | 23798 ft | 389 kts | 149° |
| 2026-04-21 02:05 | 34.65146 | -119.24226 | 23284 ft | 384 kts | 149° |
| 2026-04-21 02:05 | 34.62954 | -119.22329 | 22778 ft | 380 kts | 149° |
| 2026-04-21 02:06 | 34.60763 | -119.20442 | 22263 ft | 376 kts | 149° |
| 2026-04-21 02:06 | 34.58619 | -119.18597 | 21759 ft | 372 kts | 149° |
| 2026-04-21 02:06 | 34.56509 | -119.16780 | 21261 ft | 368 kts | 149° |
| 2026-04-21 02:06 | 34.54400 | -119.14934 | 20758 ft | 365 kts | 149° |
| 2026-04-21 02:07 | 34.52341 | -119.13105 | 20266 ft | 361 kts | 149° |
| 2026-04-21 02:07 | 34.50290 | -119.11285 | 19764 ft | 358 kts | 149° |
| 2026-04-21 02:07 | 34.48280 | -119.09504 | 19257 ft | 355 kts | 149° |
| 2026-04-21 02:07 | 34.46275 | -119.07729 | 18769 ft | 352 kts | 149° |
| 2026-04-21 02:08 | 34.44276 | -119.05962 | 18271 ft | 350 kts | 149° |
| 2026-04-21 02:08 | 34.42287 | -119.04226 | 17761 ft | 347 kts | 149° |
| 2026-04-21 02:08 | 34.40315 | -119.02521 | 17263 ft | 345 kts | 149° |
| 2026-04-21 02:08 | 34.38314 | -119.00792 | 16747 ft | 344 kts | 149° |
| 2026-04-21 02:09 | 34.36357 | -118.99100 | 16243 ft | 342 kts | 149° |
| 2026-04-21 02:09 | 34.34396 | -118.97405 | 15746 ft | 339 kts | 149° |
| 2026-04-21 02:09 | 34.32481 | -118.95702 | 15261 ft | 338 kts | 147° |
| 2026-04-21 02:09 | 34.30621 | -118.94000 | 14776 ft | 335 kts | 147° |
| 2026-04-21 02:10 | 34.28735 | -118.92280 | 14291 ft | 333 kts | 147° |
| 2026-04-21 02:10 | 34.26865 | -118.90579 | 13797 ft | 331 kts | 146° |
| 2026-04-21 02:10 | 34.25023 | -118.88908 | 13314 ft | 330 kts | 146° |
| 2026-04-21 02:10 | 34.23171 | -118.87206 | 12824 ft | 328 kts | 146° |
| 2026-04-21 02:11 | 34.21368 | -118.85545 | 12377 ft | 324 kts | 145° |
| 2026-04-21 02:11 | 34.19572 | -118.83892 | 12171 ft | 310 kts | 145° |
| 2026-04-21 02:11 | 34.17895 | -118.82350 | 12069 ft | 295 kts | 145° |
| 2026-04-21 02:11 | 34.16278 | -118.80866 | 11954 ft | 282 kts | 145° |
| 2026-04-21 02:12 | 34.14784 | -118.79305 | 11707 ft | 288 kts | 140° |
| 2026-04-21 02:12 | 34.13290 | -118.77622 | 11387 ft | 288 kts | 140° |
| 2026-04-21 02:12 | 34.11796 | -118.75967 | 11088 ft | 285 kts | 140° |
| 2026-04-21 02:12 | 34.10328 | -118.74361 | 10818 ft | 280 kts | 140° |
| 2026-04-21 02:13 | 34.08874 | -118.72778 | 10550 ft | 276 kts | 141° |
| 2026-04-21 02:13 | 34.07446 | -118.71227 | 10288 ft | 272 kts | 140° |
| 2026-04-21 02:13 | 34.06023 | -118.69683 | 10014 ft | 269 kts | 140° |
| 2026-04-21 02:13 | 34.04607 | -118.68147 | 9707 ft | 270 kts | 140° |
| 2026-04-21 02:14 | 34.03376 | -118.66418 | 9329 ft | 274 kts | 120° |
| 2026-04-21 02:14 | 34.02806 | -118.64211 | 9014 ft | 275 kts | 102° |
| 2026-04-21 02:14 | 34.02541 | -118.61910 | 8761 ft | 274 kts | 99° |
| 2026-04-21 02:14 | 34.02323 | -118.59599 | 8487 ft | 274 kts | 99° |
| 2026-04-21 02:15 | 34.02109 | -118.57297 | 8202 ft | 273 kts | 98° |
| 2026-04-21 02:15 | 34.01894 | -118.55016 | 7923 ft | 271 kts | 98° |
| 2026-04-21 02:15 | 34.01685 | -118.52779 | 7694 ft | 267 kts | 98° |
| 2026-04-21 02:15 | 34.01477 | -118.50562 | 7468 ft | 261 kts | 98° |
| 2026-04-21 02:16 | 34.01270 | -118.48373 | 7262 ft | 253 kts | 98° |
| 2026-04-21 02:16 | 34.01089 | -118.46281 | 7051 ft | 250 kts | 92° |
| 2026-04-21 02:16 | 34.01269 | -118.44220 | 6837 ft | 248 kts | 81° |
| 2026-04-21 02:16 | 34.01615 | -118.42184 | 6626 ft | 241 kts | 80° |
| 2026-04-21 02:17 | 34.01962 | -118.40220 | 6421 ft | 236 kts | 80° |
| 2026-04-21 02:17 | 34.02298 | -118.38281 | 6227 ft | 234 kts | 80° |
| 2026-04-21 02:17 | 34.02629 | -118.36356 | 6032 ft | 232 kts | 80° |
| 2026-04-21 02:17 | 34.02908 | -118.34460 | 5983 ft | 232 kts | 85° |
| 2026-04-21 02:18 | 34.03079 | -118.32506 | 5733 ft | 233 kts | 86° |
| 2026-04-21 02:18 | 34.03259 | -118.30562 | 5440 ft | 230 kts | 85° |
| 2026-04-21 02:18 | 34.03453 | -118.28667 | 5152 ft | 229 kts | 84° |
| 2026-04-21 02:18 | 34.03664 | -118.26784 | 5003 ft | 226 kts | 83° |
| 2026-04-21 02:19 | 34.03876 | -118.24876 | 4980 ft | 229 kts | 84° |
| 2026-04-21 02:19 | 34.04087 | -118.22968 | 4981 ft | 229 kts | 84° |
| 2026-04-21 02:19 | 34.04297 | -118.21062 | 4980 ft | 229 kts | 84° |
| 2026-04-21 02:19 | 34.04506 | -118.19151 | 4978 ft | 229 kts | 84° |
| 2026-04-21 02:20 | 34.04715 | -118.17243 | 4984 ft | 229 kts | 84° |
| 2026-04-21 02:20 | 34.04926 | -118.15324 | 4986 ft | 229 kts | 84° |
| 2026-04-21 02:20 | 34.05135 | -118.13405 | 4987 ft | 229 kts | 84° |
| 2026-04-21 02:20 | 34.05341 | -118.11513 | 4985 ft | 229 kts | 84° |
| 2026-04-21 02:21 | 34.05541 | -118.09604 | 4983 ft | 228 kts | 88° |
| 2026-04-21 02:21 | 34.05243 | -118.07752 | 4977 ft | 225 kts | 119° |
| 2026-04-21 02:21 | 34.04163 | -118.06423 | 4975 ft | 222 kts | 152° |
| 2026-04-21 02:21 | 34.02646 | -118.06042 | 4975 ft | 222 kts | 185° |
| 2026-04-21 02:22 | 34.01196 | -118.06619 | 4968 ft | 222 kts | 211° |
| 2026-04-21 02:22 | 34.00085 | -118.07944 | 4897 ft | 225 kts | 230° |
| 2026-04-21 02:22 | 33.99134 | -118.09421 | 4662 ft | 218 kts | 231° |
| 2026-04-21 02:22 | 33.98210 | -118.10847 | 4419 ft | 208 kts | 231° |
| 2026-04-21 02:23 | 33.97330 | -118.12202 | 4181 ft | 200 kts | 231° |
| 2026-04-21 02:23 | 33.96542 | -118.13534 | 3940 ft | 194 kts | 242° |
| 2026-04-21 02:23 | 33.96108 | -118.15046 | 3693 ft | 189 kts | 257° |
| 2026-04-21 02:23 | 33.95904 | -118.16617 | 3446 ft | 185 kts | 262° |
| 2026-04-21 02:24 | 33.95763 | -118.18115 | 3204 ft | 178 kts | 263° |
| 2026-04-21 02:24 | 33.95626 | -118.19608 | 3002 ft | 176 kts | 263° |
| 2026-04-21 02:24 | 33.95482 | -118.21106 | 2853 ft | 178 kts | 263° |
| 2026-04-21 02:24 | 33.95336 | -118.22570 | 2631 ft | 172 kts | 263° |
| 2026-04-21 02:25 | 33.95197 | -118.23960 | 2421 ft | 163 kts | 263° |
| 2026-04-21 02:25 | 33.95067 | -118.25256 | 2225 ft | 148 kts | 262° |
| 2026-04-21 02:25 | 33.94944 | -118.26465 | 2041 ft | 143 kts | 262° |
| 2026-04-21 02:25 | 33.94825 | -118.27637 | 1859 ft | 140 kts | 262° |
| 2026-04-21 02:26 | 33.94706 | -118.28806 | 1674 ft | 138 kts | 262° |
| 2026-04-21 02:26 | 33.94588 | -118.29961 | 1488 ft | 137 kts | 262° |
| 2026-04-21 02:26 | 33.94471 | -118.31097 | 1306 ft | 134 kts | 262° |
| 2026-04-21 02:26 | 33.94358 | -118.32205 | 1127 ft | 133 kts | 262° |
| 2026-04-21 02:27 | 33.94245 | -118.33314 | 951 ft | 132 kts | 262° |
| 2026-04-21 02:27 | 33.94133 | -118.34411 | 773 ft | 131 kts | 262° |
| 2026-04-21 02:27 | 33.94022 | -118.35495 | 597 ft | 130 kts | 262° |
| 2026-04-21 02:27 | 33.93910 | -118.36588 | 421 ft | 130 kts | 262° |
| 2026-04-21 02:28 | 33.93799 | -118.37665 | 250 ft | 129 kts | 262° |
| 2026-04-21 02:28 | 33.93690 | -118.38723 | 124 ft | 125 kts | 263° |
| 2026-04-21 02:28 | 33.93594 | -118.39677 | 123 ft | 105 kts | 266° |
| 2026-04-21 02:28 | 33.93518 | -118.40427 | 134 ft | 74 kts | 263° |
| 2026-04-21 02:29 | 33.93489 | -118.40764 | 138 ft | 26 kts | 265° |
| 2026-04-21 02:29 | 33.93489 | -118.40979 | 140 ft | 22 kts | 277° |
| 2026-04-21 02:29 | 33.93512 | -118.41097 | 140 ft | 11 kts | 288° |
| 2026-04-21 02:29 | 33.93522 | -118.41130 | 139 ft | 4 kts | 293° |
| 2026-04-21 02:30 | 33.93538 | -118.41170 | 139 ft | 6 kts | 295° |
| 2026-04-21 02:30 | 33.93572 | -118.41226 | 139 ft | 9 kts | 317° |
| 2026-04-21 02:30 | 33.93639 | -118.41267 | 139 ft | 11 kts | 349° |
| 2026-04-21 02:30 | 33.93725 | -118.41274 | 139 ft | 9 kts | 15° |
| 2026-04-21 02:31 | 33.93750 | -118.41241 | 139 ft | 0 kts | 77° |
| 2026-04-21 02:32 | 33.93757 | -118.41190 | 139 ft | 13 kts | 82° |
| 2026-04-21 02:32 | 33.93774 | -118.41028 | 141 ft | 23 kts | 84° |
| 2026-04-21 02:32 | 33.93789 | -118.40852 | 142 ft | 20 kts | 83° |
| 2026-04-21 02:32 | 33.93808 | -118.40682 | 141 ft | 20 kts | 82° |
| 2026-04-21 02:33 | 33.93824 | -118.40527 | 138 ft | 15 kts | 83° |
| 2026-04-21 02:33 | 33.93840 | -118.40388 | 135 ft | 17 kts | 83° |
| 2026-04-21 02:33 | 33.93854 | -118.40242 | 131 ft | 13 kts | 83° |
| 2026-04-21 02:33 | 33.93866 | -118.40121 | 130 ft | 15 kts | 83° |
| 2026-04-21 02:34 | 33.93881 | -118.39988 | 128 ft | 14 kts | 83° |
| 2026-04-21 02:34 | 33.93885 | -118.39949 | 127 ft | 0 kts | 84° |
| 2026-04-21 02:35 | 33.93885 | -118.39944 | 127 ft | 1 kts | 83° |
| 2026-04-21 02:35 | 33.93886 | -118.39928 | 127 ft | 2 kts | 83° |
| 2026-04-21 02:35 | 33.93893 | -118.39857 | 126 ft | 11 kts | 83° |
| 2026-04-21 02:35 | 33.93912 | -118.39819 | 126 ft | 4 kts | 26° |
| 2026-04-21 02:36 | 33.93944 | -118.39816 | 127 ft | 5 kts | 0° |
| 2026-04-21 02:36 | 33.93986 | -118.39820 | 128 ft | 5 kts | 349° |
| 2026-04-21 02:36 | 33.94013 | -118.39825 | 130 ft | 0 kts | 356° |
| 2026-04-21 02:36 | 33.94042 | -118.39827 | 130 ft | 8 kts | 355° |
| 2026-04-21 02:37 | 33.94082 | -118.39865 | 131 ft | 3 kts | 310° |
| 2026-04-21 02:37 | 33.94093 | -118.39880 | 131 ft | 0 kts | 308° |
| 2026-04-21 02:37 | 33.94096 | -118.39885 | 132 ft | 1 kts | 307° |
| 2026-04-21 02:37 | 33.94102 | -118.39893 | 132 ft | 0 kts | 307° |